createdAt,value
2023-02-26T00:00:21.338Z,80.05
2023-02-26T00:02:49.377Z,80.16
2023-02-26T00:05:17.820Z,79.65
2023-02-26T00:07:47.217Z,80.21
2023-02-26T00:10:16.317Z,80.81
2023-02-26T00:12:45.500Z,80.16
2023-02-26T00:15:15.603Z,80.63
2023-02-26T00:17:50.067Z,81.14
2023-02-26T00:20:18.622Z,81.72
2023-02-26T00:22:48.560Z,83.04
2023-02-26T00:25:16.365Z,83.53
2023-02-26T00:27:45.023Z,83.80
2023-02-26T00:30:13.838Z,83.99
2023-02-26T00:32:42.688Z,84.11
2023-02-26T00:35:14.853Z,84.61
2023-02-26T00:38:02.701Z,84.91
2023-02-26T00:40:43.145Z,85.47
2023-02-26T00:43:15.824Z,85.64
2023-02-26T00:45:48.736Z,85.23
2023-02-26T00:48:32.780Z,85.95
2023-02-26T00:51:01.303Z,84.72
2023-02-26T00:53:37.273Z,85.07
2023-02-26T00:56:07.946Z,85.03
2023-02-26T00:58:35.687Z,84.54
2023-02-26T01:01:03.423Z,85.54
2023-02-26T01:03:33.076Z,84.96
2023-02-26T01:06:04.325Z,84.91
2023-02-26T01:08:41.825Z,85.11
2023-02-26T01:11:10.642Z,85.27
2023-02-26T01:13:38.747Z,84.78
2023-02-26T01:16:13.130Z,85.23
2023-02-26T01:18:46.126Z,85.61
2023-02-26T01:21:19.665Z,85.13
2023-02-26T01:23:52.503Z,85.55
2023-02-26T01:26:25.055Z,85.65
2023-02-26T01:28:53.869Z,83.90
2023-02-26T01:31:35.871Z,83.93
2023-02-26T01:34:11.478Z,82.96
2023-02-26T01:36:45.063Z,83.11
2023-02-26T01:39:26.003Z,80.39
2023-02-26T01:41:57.034Z,81.30
2023-02-26T01:44:29.534Z,80.98
2023-02-26T01:47:11.280Z,80.30
2023-02-26T01:49:39.789Z,78.89
2023-02-26T01:52:08.955Z,79.28
2023-02-26T01:54:39.378Z,78.37
2023-02-26T01:57:10.197Z,78.16
2023-02-26T01:59:42.278Z,77.69
2023-02-26T02:02:12.594Z,77.53
2023-02-26T02:04:42.053Z,76.52
2023-02-26T02:07:09.842Z,77.07
2023-02-26T02:09:39.739Z,77.29
2023-02-26T02:12:26.247Z,77.34
2023-02-26T02:15:05.066Z,76.96
2023-02-26T02:17:42.355Z,76.87
2023-02-26T02:20:37.154Z,76.29
2023-02-26T02:23:18.646Z,75.61
2023-02-26T02:26:11.726Z,76.04
2023-02-26T02:28:54.053Z,76.12
2023-02-26T02:31:28.124Z,75.35
2023-02-26T02:34:01.645Z,75.04
2023-02-26T02:36:35.413Z,75.17
2023-02-26T02:39:05.640Z,73.79
2023-02-26T02:41:38.703Z,74.95
2023-02-26T02:44:11.672Z,74.21
2023-02-26T02:46:43.436Z,74.53
2023-02-26T02:49:16.971Z,73.97
2023-02-26T02:51:49.361Z,73.97
2023-02-26T02:54:21.685Z,74.15
2023-02-26T02:56:56.395Z,74.24
2023-02-26T02:59:29.549Z,73.63
2023-02-26T03:02:05.897Z,74.46
2023-02-26T03:04:33.725Z,74.26
2023-02-26T03:07:01.569Z,73.42
2023-02-26T03:09:29.370Z,73.72
2023-02-26T03:11:57.142Z,73.53
2023-02-26T03:14:25.261Z,72.26
2023-02-26T03:17:06.415Z,73.47
2023-02-26T03:19:42.072Z,73.44
2023-02-26T03:22:14.769Z,72.87
2023-02-26T03:24:51.099Z,72.89
2023-02-26T03:27:27.409Z,72.68
2023-02-26T03:29:59.785Z,71.98
2023-02-26T03:32:32.485Z,72.50
2023-02-26T03:35:07.029Z,71.77
2023-02-26T03:37:38.998Z,72.02
2023-02-26T03:40:13.081Z,71.82
2023-02-26T03:42:47.437Z,70.71
2023-02-26T03:45:20.074Z,70.71
2023-02-26T03:47:53.812Z,70.33
2023-02-26T03:50:23.072Z,69.97
2023-02-26T03:52:53.703Z,69.48
2023-02-26T03:55:27.095Z,69.84
2023-02-26T03:57:55.483Z,69.54
2023-02-26T04:00:25.246Z,69.04
2023-02-26T04:03:00.997Z,68.92
2023-02-26T04:05:36.192Z,68.71
2023-02-26T04:08:04.367Z,68.61
2023-02-26T04:10:37.593Z,68.25
2023-02-26T04:13:06.995Z,68.60
2023-02-26T04:15:34.799Z,68.88
2023-02-26T04:18:04.193Z,68.01
2023-02-26T04:20:31.997Z,68.49
2023-02-26T04:22:59.736Z,68.41
2023-02-26T04:25:29.147Z,68.97
2023-02-26T04:27:56.880Z,68.69
2023-02-26T04:30:24.581Z,68.52
2023-02-26T04:32:52.358Z,68.46
2023-02-26T04:35:21.523Z,68.34
2023-02-26T04:37:49.405Z,68.89
2023-02-26T04:40:17.501Z,69.19
2023-02-26T04:42:47.304Z,69.23
2023-02-26T04:45:15.355Z,67.89
2023-02-26T04:47:43.089Z,68.85
2023-02-26T04:50:12.226Z,68.16
2023-02-26T04:52:41.366Z,68.57
2023-02-26T04:55:09.918Z,68.41
2023-02-26T04:57:37.634Z,69.00
2023-02-26T05:00:09.621Z,69.20
2023-02-26T05:02:37.427Z,69.12
2023-02-26T05:05:05.654Z,68.67
2023-02-26T05:07:33.381Z,68.43
2023-02-26T05:10:02.510Z,68.67
2023-02-26T05:12:30.254Z,69.20
2023-02-26T05:14:57.970Z,69.25
2023-02-26T05:17:25.858Z,68.50
2023-02-26T05:19:53.732Z,68.56
2023-02-26T05:22:21.656Z,68.77
2023-02-26T05:24:49.795Z,68.14
2023-02-26T05:27:19.060Z,68.45
2023-02-26T05:29:46.838Z,69.27
2023-02-26T05:32:14.718Z,69.18
2023-02-26T05:34:42.543Z,68.47
2023-02-26T05:37:10.306Z,68.46
2023-02-26T05:39:38.155Z,68.97
2023-02-26T05:42:06.096Z,68.56
2023-02-26T05:44:35.500Z,68.62
2023-02-26T05:47:03.315Z,69.24
2023-02-26T05:49:31.160Z,68.88
2023-02-26T05:51:58.927Z,69.79
2023-02-26T05:54:26.683Z,69.27
2023-02-26T05:56:54.452Z,69.81
2023-02-26T05:59:25.335Z,69.20
2023-02-26T06:01:54.493Z,70.03
2023-02-26T06:04:22.264Z,69.45
2023-02-26T06:06:50.008Z,69.69
2023-02-26T06:09:17.879Z,69.59
2023-02-26T06:11:45.659Z,70.33
2023-02-26T06:14:13.529Z,69.64
2023-02-26T06:16:41.507Z,70.15
2023-02-26T06:19:10.708Z,69.67
2023-02-26T06:21:38.536Z,69.71
2023-02-26T06:24:06.920Z,69.69
2023-02-26T06:26:34.791Z,69.83
2023-02-26T06:29:02.607Z,69.98
2023-02-26T06:31:30.489Z,70.07
2023-02-26T06:33:58.279Z,70.53
2023-02-26T06:36:27.736Z,70.43
2023-02-26T06:38:55.624Z,70.28
2023-02-26T06:41:23.402Z,70.28
2023-02-26T06:43:51.145Z,70.79
2023-02-26T06:46:18.930Z,70.48
2023-02-26T06:48:46.708Z,70.25
2023-02-26T06:51:14.462Z,70.21
2023-02-26T06:53:43.644Z,70.28
2023-02-26T06:56:11.361Z,70.47
2023-02-26T06:58:39.112Z,70.24
2023-02-26T07:01:06.865Z,70.36
2023-02-26T07:03:34.668Z,70.54
2023-02-26T07:06:23.693Z,70.56
2023-02-26T07:08:51.669Z,70.46
2023-02-26T07:11:19.481Z,70.40
2023-02-26T07:13:47.260Z,70.69
2023-02-26T07:16:15.018Z,70.97
2023-02-26T07:18:42.815Z,70.77
2023-02-26T07:21:11.883Z,71.29
2023-02-26T07:23:39.704Z,70.64
2023-02-26T07:26:09.067Z,70.97
2023-02-26T07:28:37.183Z,70.35
2023-02-26T07:31:05.378Z,70.54
2023-02-26T07:33:35.068Z,70.14
2023-02-26T07:36:02.932Z,70.15
2023-02-26T07:38:30.831Z,70.40
2023-02-26T07:40:58.973Z,70.12
2023-02-26T07:43:28.121Z,70.30
2023-02-26T07:45:55.954Z,70.02
2023-02-26T07:48:23.957Z,70.20
2023-02-26T07:50:53.607Z,70.88
2023-02-26T07:53:21.973Z,70.81
2023-02-26T07:55:49.756Z,70.19
2023-02-26T07:58:17.715Z,70.54
2023-02-26T08:00:46.913Z,70.93
2023-02-26T08:03:15.450Z,70.15
2023-02-26T08:05:43.514Z,71.00
2023-02-26T08:08:11.720Z,69.88
2023-02-26T08:10:42.471Z,69.73
2023-02-26T08:13:10.413Z,69.63
2023-02-26T08:15:38.290Z,70.21
2023-02-26T08:18:07.552Z,69.27
2023-02-26T08:20:35.319Z,69.19
2023-02-26T08:23:03.212Z,68.72
2023-02-26T08:25:31.230Z,68.50
2023-02-26T08:27:59.031Z,68.11
2023-02-26T08:30:26.811Z,67.65
2023-02-26T08:32:54.564Z,67.74
2023-02-26T08:35:23.804Z,66.22
2023-02-26T08:37:52.852Z,65.91
2023-02-26T08:40:20.727Z,66.60
2023-02-26T08:42:48.485Z,65.38
2023-02-26T08:45:16.366Z,65.56
2023-02-26T08:47:56.235Z,65.05
2023-02-26T08:50:27.250Z,64.16
2023-02-26T08:52:55.083Z,63.33
2023-02-26T08:55:23.224Z,63.89
2023-02-26T08:57:50.953Z,62.47
2023-02-26T09:00:19.513Z,61.51
2023-02-26T09:02:47.675Z,62.08
2023-02-26T09:05:16.349Z,61.60
2023-02-26T09:07:45.819Z,60.11
2023-02-26T09:10:16.964Z,59.76
2023-02-26T09:12:45.193Z,58.39
2023-02-26T09:15:14.364Z,57.98
2023-02-26T09:17:42.490Z,55.52
2023-02-26T09:20:12.285Z,56.41
2023-02-26T09:22:40.041Z,55.11
2023-02-26T09:25:10.086Z,53.90
2023-02-26T09:27:38.009Z,54.43
2023-02-26T09:30:06.990Z,53.98
2023-02-26T09:32:34.865Z,53.75
2023-02-26T09:35:02.834Z,52.22
2023-02-26T09:37:30.613Z,53.47
2023-02-26T09:39:58.405Z,52.58
2023-02-26T09:42:40.396Z,51.61
2023-02-26T09:45:15.549Z,51.43
2023-02-26T09:47:51.046Z,51.75
2023-02-26T09:50:22.789Z,51.17
2023-02-26T09:52:56.806Z,52.05
2023-02-26T09:55:31.032Z,51.94
2023-02-26T09:58:03.298Z,51.24
2023-02-26T10:00:35.034Z,50.05
2023-02-26T10:03:17.449Z,49.84
2023-02-26T10:06:07.375Z,49.97
2023-02-26T10:08:42.596Z,50.00
2023-02-26T10:11:18.692Z,49.18
2023-02-26T10:13:57.642Z,49.41
2023-02-26T10:16:29.876Z,48.94
2023-02-26T10:19:05.037Z,49.07
2023-02-26T10:21:40.491Z,48.86
2023-02-26T10:24:14.509Z,48.66
2023-02-26T10:26:46.650Z,49.04
2023-02-26T10:29:23.425Z,50.81
2023-02-26T10:32:02.218Z,49.52
2023-02-26T10:34:35.881Z,48.88
2023-02-26T10:37:14.699Z,48.15
2023-02-26T10:39:47.321Z,48.52
2023-02-26T10:42:19.666Z,48.61
2023-02-26T10:45:01.166Z,48.63
2023-02-26T10:47:38.699Z,48.07
2023-02-26T10:50:10.244Z,49.00
2023-02-26T10:52:38.510Z,49.88
2023-02-26T10:55:40.661Z,49.10
2023-02-26T10:58:14.421Z,48.83
2023-02-26T11:00:45.331Z,49.19
2023-02-26T11:03:18.270Z,49.14
2023-02-26T11:05:46.999Z,49.61
2023-02-26T11:08:19.152Z,48.57
2023-02-26T11:10:54.189Z,48.26
2023-02-26T11:13:23.335Z,48.65
2023-02-26T11:15:54.475Z,48.28
2023-02-26T11:18:27.410Z,49.55
2023-02-26T11:20:57.934Z,49.69
2023-02-26T11:23:28.871Z,50.17
2023-02-26T11:26:02.661Z,47.95
2023-02-26T11:28:32.318Z,48.40
2023-02-26T11:31:10.377Z,49.18
2023-02-26T11:33:40.235Z,49.70
2023-02-26T11:36:12.353Z,49.41
2023-02-26T11:38:40.573Z,49.69
2023-02-26T11:41:09.068Z,48.91
2023-02-26T11:43:44.131Z,49.40
2023-02-26T11:46:14.855Z,48.95
2023-02-26T11:48:46.340Z,47.88
2023-02-26T11:51:16.883Z,47.09
2023-02-26T11:53:50.102Z,48.11
2023-02-26T11:56:26.175Z,47.62
2023-02-26T11:58:56.138Z,48.36
2023-02-26T12:01:28.867Z,48.23
2023-02-26T12:04:00.294Z,47.85
2023-02-26T12:06:28.214Z,47.94
2023-02-26T12:08:56.584Z,48.55
2023-02-26T12:11:56.383Z,48.10
2023-02-26T12:14:50.071Z,47.38
2023-02-26T12:17:36.118Z,44.92
2023-02-26T12:20:17.296Z,45.77
2023-02-26T12:22:55.054Z,45.68
2023-02-26T12:26:01.154Z,46.63
2023-02-26T12:28:51.939Z,47.77
2023-02-26T12:31:45.622Z,45.67
2023-02-26T12:34:38.115Z,45.25
2023-02-26T12:37:25.790Z,46.44
2023-02-26T12:40:07.090Z,46.39
2023-02-26T12:42:46.246Z,45.63
2023-02-26T12:45:32.954Z,46.30
2023-02-26T12:48:23.325Z,44.78
2023-02-26T12:51:01.182Z,45.82
2023-02-26T12:53:43.222Z,46.46
2023-02-26T12:56:32.889Z,45.37
2023-02-26T12:59:18.764Z,46.28
2023-02-26T13:02:01.506Z,45.13
2023-02-26T13:04:55.360Z,45.81
2023-02-26T13:07:40.339Z,45.25
2023-02-26T13:10:16.628Z,47.19
2023-02-26T13:12:52.318Z,45.32
2023-02-26T13:15:47.212Z,44.62
2023-02-26T13:18:23.465Z,44.69
2023-02-26T13:20:58.403Z,46.19
2023-02-26T13:23:35.165Z,45.89
2023-02-26T13:26:06.070Z,46.36
2023-02-26T13:28:42.015Z,45.69
2023-02-26T13:31:15.027Z,46.74
2023-02-26T13:33:44.579Z,47.66
2023-02-26T13:36:12.879Z,46.72
2023-02-26T13:38:54.567Z,47.03
2023-02-26T13:41:33.341Z,48.21
2023-02-26T13:44:18.764Z,47.63
2023-02-26T13:46:59.319Z,47.73
2023-02-26T13:49:32.336Z,46.23
2023-02-26T13:52:00.339Z,45.79
2023-02-26T13:54:44.202Z,45.48
2023-02-26T13:57:26.840Z,46.11
2023-02-26T14:00:02.160Z,46.87
2023-02-26T14:02:51.742Z,46.17
2023-02-26T14:05:51.489Z,46.54
2023-02-26T14:08:48.421Z,47.57
2023-02-26T14:11:39.512Z,47.45
2023-02-26T14:14:19.049Z,46.94
2023-02-26T14:16:51.123Z,47.17
2023-02-26T14:19:29.614Z,47.07
2023-02-26T14:21:59.046Z,48.14
2023-02-26T14:24:36.902Z,48.03
2023-02-26T14:27:35.345Z,48.35
2023-02-26T14:30:18.142Z,47.03
2023-02-26T14:32:50.447Z,48.03
2023-02-26T14:35:20.764Z,47.06
2023-02-26T14:37:58.259Z,47.47
2023-02-26T14:40:26.608Z,46.96
2023-02-26T14:42:58.949Z,47.51
2023-02-26T14:45:32.508Z,47.88
2023-02-26T14:48:02.342Z,49.84
2023-02-26T14:50:39.038Z,52.87
2023-02-26T14:53:44.587Z,52.97
2023-02-26T14:56:19.575Z,54.64
2023-02-26T14:59:00.403Z,54.31
2023-02-26T15:01:50.060Z,54.15
2023-02-26T15:04:36.185Z,54.51
2023-02-26T15:07:27.794Z,54.64
2023-02-26T15:10:14.481Z,56.30
2023-02-26T15:12:55.708Z,55.92
2023-02-26T15:15:39.461Z,55.49
2023-02-26T15:18:27.180Z,54.39
2023-02-26T15:21:05.772Z,55.42
2023-02-26T15:23:41.786Z,55.84
2023-02-26T15:26:17.796Z,56.07
2023-02-26T15:28:46.299Z,55.64
2023-02-26T15:31:15.608Z,55.82
2023-02-26T15:33:45.007Z,56.80
2023-02-26T15:36:18.848Z,56.78
2023-02-26T15:38:48.245Z,56.46
2023-02-26T15:41:17.495Z,57.59
2023-02-26T15:43:51.024Z,57.44
2023-02-26T15:46:29.711Z,55.99
2023-02-26T15:49:03.590Z,56.79
2023-02-26T15:51:31.892Z,56.46
2023-02-26T15:54:03.277Z,57.36
2023-02-26T15:56:36.552Z,57.03
2023-02-26T15:59:08.006Z,56.52
2023-02-26T16:01:37.760Z,57.04
2023-02-26T16:04:08.953Z,56.36
2023-02-26T16:06:38.788Z,55.96
2023-02-26T16:09:09.132Z,57.07
2023-02-26T16:11:39.960Z,58.11
2023-02-26T16:14:14.777Z,58.71
2023-02-26T16:16:47.405Z,58.57
2023-02-26T16:19:16.387Z,58.85
2023-02-26T16:21:44.839Z,59.94
2023-02-26T16:24:19.019Z,60.03
2023-02-26T16:26:50.129Z,60.32
2023-02-26T16:29:20.514Z,59.75
2023-02-26T16:31:53.813Z,59.14
2023-02-26T16:34:31.792Z,58.64
2023-02-26T16:36:59.965Z,58.93
2023-02-26T16:39:32.427Z,59.91
2023-02-26T16:42:10.124Z,60.74
2023-02-26T16:44:46.381Z,60.80
2023-02-26T16:47:16.611Z,61.02
2023-02-26T16:49:45.332Z,60.47
2023-02-26T16:52:20.725Z,61.34
2023-02-26T16:54:56.420Z,61.53
2023-02-26T16:57:31.058Z,61.07
2023-02-26T17:00:04.602Z,62.02
2023-02-26T17:02:36.329Z,61.42
2023-02-26T17:05:22.554Z,61.41
2023-02-26T17:07:58.232Z,62.01
2023-02-26T17:10:33.593Z,61.42
2023-02-26T17:13:13.837Z,61.81
2023-02-26T17:15:41.995Z,62.58
2023-02-26T17:18:11.404Z,62.85
2023-02-26T17:20:40.825Z,62.70
2023-02-26T17:23:10.044Z,62.70
2023-02-26T17:25:40.703Z,62.67
2023-02-26T17:28:09.305Z,63.46
2023-02-26T17:30:38.297Z,63.61
2023-02-26T17:33:07.888Z,63.75
2023-02-26T17:35:37.075Z,64.23
2023-02-26T17:38:04.920Z,64.34
2023-02-26T17:40:36.456Z,64.03
2023-02-26T17:43:04.711Z,64.11
2023-02-26T17:45:33.543Z,64.23
2023-02-26T17:48:01.475Z,64.51
2023-02-26T17:50:37.101Z,64.04
2023-02-26T17:53:07.528Z,64.30
2023-02-26T17:55:37.371Z,64.28
2023-02-26T17:58:05.130Z,64.52
2023-02-26T18:00:34.403Z,65.06
2023-02-26T18:03:03.031Z,65.18
2023-02-26T18:05:32.865Z,65.08
2023-02-26T18:08:00.593Z,64.95
2023-02-26T18:10:29.739Z,64.67
2023-02-26T18:12:57.522Z,65.29
2023-02-26T18:15:26.236Z,65.07
2023-02-26T18:17:53.986Z,65.47
2023-02-26T18:20:23.371Z,65.26
2023-02-26T18:22:51.563Z,65.64
2023-02-26T18:25:19.857Z,65.57
2023-02-26T18:27:54.427Z,65.85
2023-02-26T18:30:25.377Z,66.07
2023-02-26T18:32:53.211Z,65.86
2023-02-26T18:35:20.998Z,65.69
2023-02-26T18:37:49.012Z,66.23
2023-02-26T18:40:19.109Z,66.31
2023-02-26T18:42:46.887Z,66.39
2023-02-26T18:45:16.380Z,66.67
2023-02-26T18:47:45.191Z,67.05
2023-02-26T18:50:14.854Z,66.93
2023-02-26T18:52:43.231Z,67.23
2023-02-26T18:55:12.125Z,67.57
2023-02-26T18:57:40.469Z,67.47
2023-02-26T19:00:10.392Z,66.79
2023-02-26T19:02:39.578Z,67.36
2023-02-26T19:05:08.943Z,66.82
2023-02-26T19:07:36.823Z,66.77
2023-02-26T19:10:05.227Z,66.47
2023-02-26T19:12:33.146Z,66.88
2023-02-26T19:15:00.986Z,67.27
2023-02-26T19:17:28.976Z,67.47
2023-02-26T19:19:58.068Z,67.58
2023-02-26T19:22:25.863Z,67.78
2023-02-26T19:24:54.761Z,68.08
2023-02-26T19:27:22.568Z,68.24
2023-02-26T19:29:50.434Z,68.22
2023-02-26T19:32:18.365Z,67.81
2023-02-26T19:34:46.309Z,68.17
2023-02-26T19:37:15.412Z,68.38
2023-02-26T19:39:43.201Z,68.33
2023-02-26T19:42:11.006Z,68.99
2023-02-26T19:44:38.800Z,69.16
2023-02-26T19:47:06.688Z,68.71
2023-02-26T19:49:35.086Z,69.36
2023-02-26T19:52:02.938Z,69.46
2023-02-26T19:54:32.249Z,69.14
2023-02-26T19:57:00.015Z,68.84
2023-02-26T19:59:28.172Z,68.95
2023-02-26T20:01:55.979Z,69.18
2023-02-26T20:04:23.749Z,68.75
2023-02-26T20:06:51.611Z,68.74
2023-02-26T20:09:20.193Z,69.50
2023-02-26T20:11:49.389Z,68.86
2023-02-26T20:14:18.550Z,68.82
2023-02-26T20:16:46.307Z,69.08
2023-02-26T20:19:14.121Z,69.28
2023-02-26T20:21:41.944Z,69.52
2023-02-26T20:24:10.072Z,69.28
2023-02-26T20:26:38.199Z,69.23
2023-02-26T20:29:07.830Z,68.96
2023-02-26T20:31:35.776Z,68.61
2023-02-26T20:34:03.795Z,69.03
2023-02-26T20:36:31.511Z,69.20
2023-02-26T20:39:02.192Z,69.46
2023-02-26T20:41:30.013Z,69.01
2023-02-26T20:43:58.813Z,69.62
2023-02-26T20:46:28.988Z,69.13
2023-02-26T20:48:56.839Z,69.52
2023-02-26T20:51:25.231Z,70.32
2023-02-26T20:53:53.434Z,70.72
2023-02-26T20:56:21.296Z,71.07
2023-02-26T20:58:50.095Z,70.67
2023-02-26T21:01:17.884Z,71.20
2023-02-26T21:03:47.096Z,71.46
2023-02-26T21:06:14.905Z,70.52
2023-02-26T21:08:43.776Z,70.58
2023-02-26T21:11:11.681Z,71.21
2023-02-26T21:13:39.652Z,70.73
2023-02-26T21:16:07.841Z,71.42
2023-02-26T21:18:35.649Z,71.39
2023-02-26T21:21:06.008Z,70.71
2023-02-26T21:23:34.075Z,71.13
2023-02-26T21:26:01.867Z,71.50
2023-02-26T21:28:29.660Z,70.84
2023-02-26T21:30:58.427Z,71.08
2023-02-26T21:33:26.308Z,71.42
2023-02-26T21:35:54.214Z,71.69
2023-02-26T21:38:23.342Z,71.88
2023-02-26T21:40:51.196Z,72.11
2023-02-26T21:43:18.930Z,71.85
2023-02-26T21:45:48.880Z,72.44
2023-02-26T21:48:16.896Z,72.06
2023-02-26T21:50:44.705Z,72.56
2023-02-26T21:53:12.432Z,72.03
2023-02-26T21:55:41.763Z,73.06
2023-02-26T21:58:09.539Z,72.74
2023-02-26T22:00:37.732Z,72.83
2023-02-26T22:03:05.498Z,72.29
2023-02-26T22:05:33.250Z,73.04
2023-02-26T22:08:01.062Z,73.08
2023-02-26T22:10:28.872Z,72.98
2023-02-26T22:12:58.293Z,72.37
2023-02-26T22:15:26.060Z,72.92
2023-02-26T22:17:53.848Z,72.45
2023-02-26T22:20:21.665Z,72.69
2023-02-26T22:22:49.401Z,72.88
2023-02-26T22:25:17.274Z,73.18
2023-02-26T22:27:45.007Z,73.47
2023-02-26T22:30:15.004Z,72.93
2023-02-26T22:32:43.849Z,73.15
2023-02-26T22:35:13.888Z,73.45
2023-02-26T22:37:42.413Z,73.29
2023-02-26T22:40:12.308Z,73.13
2023-02-26T22:42:40.412Z,73.41
2023-02-26T22:45:10.506Z,74.47
2023-02-26T22:47:39.676Z,73.78
2023-02-26T22:50:07.884Z,74.72
2023-02-26T22:52:35.722Z,74.07
2023-02-26T22:55:03.503Z,74.73
2023-02-26T22:57:31.271Z,74.98
2023-02-26T22:59:59.059Z,75.10
2023-02-26T23:02:26.949Z,74.73
2023-02-26T23:04:56.110Z,74.38
2023-02-26T23:07:23.839Z,75.01
2023-02-26T23:09:51.625Z,75.30
2023-02-26T23:12:19.365Z,75.43
2023-02-26T23:14:47.134Z,75.12
2023-02-26T23:17:15.744Z,75.73
2023-02-26T23:19:43.502Z,75.66
2023-02-26T23:22:12.658Z,75.36
2023-02-26T23:24:41.241Z,76.00
2023-02-26T23:27:09.248Z,76.28
2023-02-26T23:29:37.990Z,75.95
2023-02-26T23:32:05.927Z,75.91
2023-02-26T23:34:33.757Z,76.21
2023-02-26T23:37:01.518Z,76.07
2023-02-26T23:39:30.923Z,76.37
2023-02-26T23:41:59.580Z,77.56
2023-02-26T23:44:27.640Z,77.55
2023-02-26T23:46:55.455Z,77.74
2023-02-26T23:49:23.215Z,77.80
2023-02-26T23:51:50.968Z,77.75
2023-02-26T23:54:18.782Z,77.71
2023-02-26T23:56:47.978Z,77.30
2023-02-26T23:59:17.853Z,77.84
